createdAt,value
2023-05-09T00:00:02.807Z,0
2023-05-09T00:15:02.394Z,0
2023-05-09T00:30:02.630Z,0
2023-05-09T00:45:03.042Z,0
2023-05-09T01:00:02.495Z,0
2023-05-09T01:15:02.967Z,0
2023-05-09T01:30:02.397Z,0
2023-05-09T01:45:02.825Z,0
2023-05-09T02:00:03.413Z,0
2023-05-09T02:15:02.723Z,0
2023-05-09T02:30:03.166Z,0
2023-05-09T02:45:02.564Z,0
2023-05-09T03:00:03.021Z,0
2023-05-09T03:15:02.454Z,0
2023-05-09T03:30:02.895Z,0
2023-05-09T03:45:02.423Z,0
2023-05-09T04:00:02.797Z,10
2023-05-09T04:15:03.431Z,33
2023-05-09T04:45:03.080Z,63
2023-05-09T05:00:02.479Z,82
2023-05-09T05:15:02.926Z,79
2023-05-09T05:30:02.448Z,97
2023-05-09T05:45:02.807Z,210
2023-05-09T06:00:02.459Z,234
2023-05-09T06:15:02.672Z,187
2023-05-09T06:30:14.242Z,238
2023-05-09T06:45:02.575Z,373
2023-05-09T07:00:02.992Z,405
2023-05-09T07:15:02.462Z,241
2023-05-09T07:30:02.860Z,205
2023-05-09T07:45:02.467Z,186
2023-05-09T08:00:02.728Z,230
2023-05-09T08:15:03.240Z,247
2023-05-09T08:30:02.657Z,142
2023-05-09T08:45:03.099Z,158
2023-05-09T09:00:02.540Z,218
2023-05-09T09:15:02.956Z,127
2023-05-09T09:30:02.504Z,225
2023-05-09T09:45:02.845Z,209
2023-05-09T10:00:02.529Z,265
2023-05-09T10:15:02.723Z,218
2023-05-09T10:30:03.202Z,187
2023-05-09T10:45:02.608Z,81
2023-05-09T11:00:03.063Z,73
2023-05-09T11:15:02.518Z,122
2023-05-09T11:30:02.952Z,244
2023-05-09T11:45:02.520Z,67
2023-05-09T12:00:02.810Z,21
2023-05-09T12:15:03.266Z,93
2023-05-09T12:30:02.674Z,104
2023-05-09T12:45:03.140Z,150
2023-05-09T13:00:02.594Z,191
2023-05-09T13:15:03.035Z,140
2023-05-09T13:30:02.567Z,103
2023-05-09T13:45:02.895Z,182
2023-05-09T14:00:02.548Z,167
2023-05-09T14:15:02.793Z,118
2023-05-09T14:30:02.222Z,86
2023-05-09T14:45:02.702Z,116
2023-05-09T15:00:16.661Z,130
2023-05-09T15:15:02.629Z,196
2023-05-09T15:30:03.030Z,110
2023-05-09T15:45:02.556Z,13
2023-05-09T16:00:02.906Z,22
2023-05-09T16:15:02.485Z,23
2023-05-09T16:30:02.784Z,5
2023-05-09T16:45:03.217Z,13
2023-05-09T17:00:02.639Z,6
2023-05-09T17:15:03.067Z,5
2023-05-09T17:30:02.585Z,4
2023-05-09T17:45:02.938Z,8
2023-05-09T18:00:02.585Z,6
2023-05-09T18:15:02.840Z,6
2023-05-09T18:30:02.354Z,2
2023-05-09T18:45:02.721Z,0
2023-05-09T19:00:03.172Z,0
2023-05-09T19:15:02.600Z,0
2023-05-09T19:30:03.045Z,0
2023-05-09T19:45:02.599Z,0
2023-05-09T20:00:02.934Z,0
2023-05-09T20:15:02.603Z,0
2023-05-09T20:30:02.792Z,0
2023-05-09T20:45:03.238Z,0
2023-05-09T21:00:02.671Z,0
2023-05-09T21:15:03.142Z,0
2023-05-09T21:30:02.621Z,0
2023-05-09T21:45:02.995Z,0
2023-05-09T22:00:02.654Z,0
2023-05-09T22:15:02.864Z,0
2023-05-09T22:30:02.308Z,0
2023-05-09T22:45:02.749Z,0
2023-05-09T23:00:03.187Z,0
2023-05-09T23:15:02.641Z,0
2023-05-09T23:30:03.063Z,0
2023-05-09T23:45:02.638Z,0
